Time;durP1;ratioP1;P1;durP2;ratioP2;P2;SDS_P1;SDS_P2;PMS_P1;PMS_P2;Temp;Humidity;BMP_temperature;BMP_pressure;BME280_temperature;BME280_humidity;BME280_pressure;Samples;Min_cycle;Max_cycle;Signal;HPM_P1;HPM_P2
2023/11/30 00:01:00;;;;;;;62.57;22.60;;;-5.20;99.90;;;;;;4940277;29;20190;-80
2023/11/30 00:03:28;;;;;;;60.10;23.30;;;-5.20;99.90;;;;;;4957179;29;20203;-80
2023/11/30 00:05:56;;;;;;;59.83;22.63;;;-5.10;99.90;;;;;;4940169;29;20198;-80
2023/11/30 00:08:24;;;;;;;58.70;22.33;;;-5.20;99.90;;;;;;4924473;29;20202;-79
2023/11/30 00:10:51;;;;;;;62.73;23.00;;;-5.10;99.90;;;;;;4957111;29;20225;-80
2023/11/30 00:13:19;;;;;;;66.57;23.37;;;-5.10;99.90;;;;;;4957273;29;20186;-80
2023/11/30 00:15:46;;;;;;;60.40;21.30;;;-5.10;99.90;;;;;;4939751;29;20210;-79
2023/11/30 00:18:14;;;;;;;59.83;22.87;;;-5.10;99.90;;;;;;4955507;29;20289;-80
2023/11/30 00:20:41;;;;;;;63.03;23.03;;;-5.20;99.90;;;;;;4940058;29;21237;-79
2023/11/30 00:23:09;;;;;;;59.33;23.27;;;-5.10;99.90;;;;;;4939806;29;20208;-80
2023/11/30 00:25:36;;;;;;;62.43;23.13;;;-5.10;99.90;;;;;;4956895;29;20218;-80
2023/11/30 00:28:04;;;;;;;61.33;23.77;;;-5.10;99.90;;;;;;4956911;29;20202;-80
2023/11/30 00:30:31;;;;;;;64.23;23.40;;;-5.20;99.90;;;;;;4955240;29;20241;-80
2023/11/30 00:32:59;;;;;;;67.17;23.17;;;-5.20;99.90;;;;;;4939698;29;20186;-80
2023/11/30 00:35:26;;;;;;;65.63;23.30;;;-5.20;99.90;;;;;;4956322;29;20198;-80
2023/11/30 00:37:54;;;;;;;61.20;23.43;;;-5.20;99.90;;;;;;4956551;29;20273;-80
2023/11/30 00:40:21;;;;;;;61.00;23.00;;;-5.20;99.90;;;;;;4956445;29;20194;-80
2023/11/30 00:42:49;;;;;;;65.10;23.63;;;-5.20;99.90;;;;;;4956551;29;20191;-80
2023/11/30 00:45:22;;;;;;;55.70;22.93;;;-5.20;99.90;;;;;;4955080;28;20659;-80
2023/11/30 00:47:49;;;;;;;66.17;23.80;;;-5.30;99.90;;;;;;4939487;29;20208;-80
2023/11/30 00:50:17;;;;;;;66.93;22.97;;;-5.30;99.90;;;;;;4939445;29;20189;-80
2023/11/30 00:52:44;;;;;;;63.80;23.27;;;-5.30;99.90;;;;;;4939322;29;20205;-80
2023/11/30 00:55:12;;;;;;;60.27;22.50;;;-5.30;99.90;;;;;;4939107;29;20272;-80
2023/11/30 00:57:39;;;;;;;66.73;23.33;;;-5.30;99.90;;;;;;4956432;29;20218;-80
2023/11/30 01:00:09;;;;;;;66.60;23.00;;;-5.20;99.90;;;;;;4956036;29;20655;-80
2023/11/30 01:02:38;;;;;;;65.17;23.23;;;-5.50;99.90;;;;;;4939057;29;20277;-80
2023/11/30 01:05:06;;;;;;;63.33;23.60;;;-5.30;99.90;;;;;;4939169;29;20217;-80
2023/11/30 01:07:33;;;;;;;66.43;23.77;;;-5.30;99.90;;;;;;4956361;29;20274;-80
2023/11/30 01:10:00;;;;;;;66.53;24.27;;;-5.30;99.90;;;;;;4955955;29;20193;-80
2023/11/30 01:12:28;;;;;;;67.70;24.13;;;-5.40;99.90;;;;;;4954421;29;20242;-80
2023/11/30 01:14:55;;;;;;;65.83;25.30;;;-5.30;99.90;;;;;;4939064;29;20281;-80
2023/11/30 01:17:23;;;;;;;70.87;24.00;;;-5.30;99.90;;;;;;4938661;29;20269;-80
2023/11/30 01:19:50;;;;;;;68.13;25.57;;;-5.30;99.90;;;;;;4955727;29;20273;-81
2023/11/30 01:22:18;;;;;;;65.03;24.97;;;-5.30;99.90;;;;;;4955624;29;20187;-80
2023/11/30 01:24:46;;;;;;;68.13;24.73;;;-5.40;99.90;;;;;;4955664;29;20202;-80
2023/11/30 01:27:13;;;;;;;63.43;23.27;;;-5.30;99.90;;;;;;4938271;29;20234;-80
2023/11/30 01:29:40;;;;;;;62.47;23.37;;;-5.20;99.90;;;;;;4922490;29;20203;-80
2023/11/30 01:32:07;;;;;;;64.80;23.97;;;-5.30;99.90;;;;;;4955864;29;20249;-80
2023/11/30 01:34:35;;;;;;;64.83;24.33;;;-5.20;99.90;;;;;;4955739;29;20207;-80
2023/11/30 01:37:02;;;;;;;65.63;23.93;;;-5.30;99.90;;;;;;4955484;29;20367;-80
2023/11/30 01:39:30;;;;;;;60.23;23.43;;;-5.30;99.90;;;;;;4955367;29;20670;-80
2023/11/30 01:41:57;;;;;;;69.63;23.93;;;-5.40;99.90;;;;;;4938068;29;20237;-80
2023/11/30 01:44:27;;;;;;;65.80;23.93;;;-5.30;99.90;;;;;;4938636;29;20197;-80
2023/11/30 01:46:55;;;;;;;68.73;24.23;;;-5.20;99.90;;;;;;4955315;29;20241;-81
2023/11/30 01:49:22;;;;;;;70.83;24.20;;;-5.10;99.90;;;;;;4938326;29;20205;-81
2023/11/30 01:51:50;;;;;;;65.00;23.83;;;-5.10;99.90;;;;;;4955314;29;20198;-81
2023/11/30 01:54:18;;;;;;;64.47;23.20;;;-5.00;99.90;;;;;;4937783;29;20194;-80
2023/11/30 01:56:45;;;;;;;63.73;24.90;;;-5.00;99.90;;;;;;4938202;29;20222;-81
2023/11/30 01:59:13;;;;;;;63.67;23.90;;;-5.10;99.90;;;;;;4955308;29;20210;-80
2023/11/30 02:01:41;;;;;;;62.50;23.77;;;-5.10;99.90;;;;;;4954888;28;20210;-80
2023/11/30 02:04:15;;;;;;;68.60;24.23;;;-5.10;99.90;;;;;;4954138;28;20202;-81
2023/11/30 02:06:44;;;;;;;68.00;24.43;;;-5.10;99.90;;;;;;4937838;29;20216;-80
2023/11/30 02:09:13;;;;;;;63.33;23.67;;;-5.10;99.90;;;;;;4953474;29;20217;-80
2023/11/30 02:11:40;;;;;;;62.03;24.00;;;-5.00;99.90;;;;;;4937619;29;20241;-80
2023/11/30 02:14:08;;;;;;;61.63;23.93;;;-5.10;99.90;;;;;;4921866;29;20198;-80
2023/11/30 02:16:36;;;;;;;70.63;24.90;;;-5.00;99.90;;;;;;4937575;29;20301;-80
2023/11/30 02:19:03;;;;;;;62.17;24.80;;;-5.00;99.90;;;;;;4937647;29;20281;-81
2023/11/30 02:21:30;;;;;;;69.47;23.87;;;-5.00;99.90;;;;;;4955062;29;20229;-80
2023/11/30 02:23:58;;;;;;;65.87;23.97;;;-4.90;99.90;;;;;;4954594;29;20249;-80
2023/11/30 02:26:25;;;;;;;66.93;23.67;;;-4.90;99.90;;;;;;4954421;29;20218;-80
2023/11/30 02:28:52;;;;;;;69.10;23.50;;;-4.80;99.90;;;;;;4954442;29;20217;-80
2023/11/30 02:31:19;;;;;;;59.97;24.00;;;-4.90;99.90;;;;;;4954706;29;20201;-80
2023/11/30 02:33:47;;;;;;;66.23;24.93;;;-4.90;99.90;;;;;;4953270;29;20286;-80
2023/11/30 02:36:14;;;;;;;66.10;23.13;;;-4.80;99.90;;;;;;4954532;29;20195;-80
2023/11/30 02:38:41;;;;;;;61.53;23.37;;;-4.90;99.90;;;;;;4954368;29;20647;-80
2023/11/30 02:41:09;;;;;;;69.20;25.17;;;-5.00;99.90;;;;;;4954373;29;20218;-81
2023/11/30 02:43:37;;;;;;;72.30;23.87;;;-5.00;99.90;;;;;;4954820;29;20559;-80
2023/11/30 02:46:08;;;;;;;62.50;24.67;;;-4.90;99.90;;;;;;4952829;29;20288;-81
2023/11/30 02:48:39;;;;;;;64.20;24.23;;;-4.90;99.90;;;;;;4954676;29;20277;-80
2023/11/30 02:51:06;;;;;;;67.63;25.07;;;-4.90;99.90;;;;;;4954248;29;20197;-80
2023/11/30 02:53:33;;;;;;;63.23;24.23;;;-4.90;99.90;;;;;;4936949;29;20209;-80
2023/11/30 02:56:01;;;;;;;63.30;24.43;;;-4.90;99.90;;;;;;4954190;28;20244;-80
2023/11/30 02:58:28;;;;;;;63.77;24.50;;;-4.80;99.90;;;;;;4954491;29;20559;-80
2023/11/30 03:00:55;;;;;;;64.80;24.00;;;-5.00;99.90;;;;;;4954571;29;20612;-80
2023/11/30 03:03:23;;;;;;;68.30;24.00;;;-4.90;99.90;;;;;;4954132;29;20194;-81
2023/11/30 03:05:50;;;;;;;67.20;24.63;;;-4.80;99.90;;;;;;4954128;28;20192;-80
2023/11/30 03:08:18;;;;;;;66.93;23.83;;;-4.90;99.90;;;;;;4954089;29;20197;-80
2023/11/30 03:10:45;;;;;;;63.93;24.40;;;-4.70;99.90;;;;;;4954033;29;20217;-80
2023/11/30 03:13:12;;;;;;;64.60;23.97;;;-4.70;99.90;;;;;;4953992;29;20301;-80
2023/11/30 03:15:47;;;;;;;68.93;25.53;;;-4.70;99.90;;;;;;4957064;28;20194;-80
2023/11/30 03:18:15;;;;;;;65.50;24.33;;;-4.70;99.90;;;;;;4941177;29;20284;-80
2023/11/30 03:20:42;;;;;;;64.17;23.47;;;-4.60;99.90;;;;;;4941025;29;20209;-80
2023/11/30 03:23:10;;;;;;;68.23;23.77;;;-4.60;99.90;;;;;;4940491;29;20659;-80
2023/11/30 03:25:39;;;;;;;62.67;24.40;;;-4.50;99.90;;;;;;4958011;29;20218;-80
2023/11/30 03:28:07;;;;;;;66.20;24.73;;;-4.40;99.90;;;;;;4956446;29;20296;-80
2023/11/30 03:30:34;;;;;;;65.10;23.70;;;-4.50;99.90;;;;;;4957986;29;20251;-80
2023/11/30 03:33:02;;;;;;;61.10;23.67;;;-4.50;99.90;;;;;;4957576;28;20559;-80
2023/11/30 03:35:30;;;;;;;65.40;23.97;;;-4.50;99.90;;;;;;4940316;29;20221;-80
2023/11/30 03:37:57;;;;;;;62.97;24.43;;;-4.40;99.90;;;;;;4956256;29;20214;-80
2023/11/30 03:40:25;;;;;;;63.57;23.80;;;-4.40;99.90;;;;;;4957485;29;20190;-80
2023/11/30 03:42:52;;;;;;;63.50;24.00;;;-4.40;99.90;;;;;;4940746;29;20194;-80
2023/11/30 03:45:19;;;;;;;61.30;24.47;;;-4.30;99.90;;;;;;4940431;29;20191;-80
2023/11/30 03:47:47;;;;;;;65.17;23.43;;;-4.30;99.90;;;;;;4957369;29;20276;-80
2023/11/30 03:50:15;;;;;;;64.53;23.60;;;-4.30;99.90;;;;;;4957588;29;20187;-80
2023/11/30 03:52:42;;;;;;;58.40;22.83;;;-4.20;99.90;;;;;;4957349;29;20199;-80
2023/11/30 03:55:10;;;;;;;61.23;23.53;;;-4.10;99.90;;;;;;4939948;29;20235;-81
2023/11/30 03:57:37;;;;;;;57.77;23.10;;;-4.10;99.90;;;;;;4957276;29;20215;-80
2023/11/30 04:00:12;;;;;;;60.63;22.67;;;-4.10;99.90;;;;;;4957232;28;20201;-80
2023/11/30 04:02:42;;;;;;;57.00;22.67;;;-4.10;99.90;;;;;;4957229;29;20189;-80
2023/11/30 04:05:11;;;;;;;59.07;23.90;;;-4.10;99.90;;;;;;4957170;28;20230;-80
2023/11/30 04:07:38;;;;;;;58.57;22.30;;;-4.10;99.90;;;;;;4957283;29;20673;-80
2023/11/30 04:10:07;;;;;;;62.53;24.20;;;-4.00;99.90;;;;;;4956914;29;20199;-80
2023/11/30 04:12:34;;;;;;;60.33;22.17;;;-3.80;99.90;;;;;;4956006;29;20639;-80
2023/11/30 04:15:04;;;;;;;55.67;22.43;;;-3.90;99.90;;;;;;4939951;29;20277;-80
2023/11/30 04:17:31;;;;;;;59.07;23.37;;;-4.00;99.90;;;;;;4956210;29;20305;-81
2023/11/30 04:19:59;;;;;;;60.83;23.80;;;-3.90;99.90;;;;;;4939731;29;20297;-81
2023/11/30 04:22:26;;;;;;;55.03;21.73;;;-4.00;99.90;;;;;;4939784;29;20205;-81
2023/11/30 04:24:54;;;;;;;54.70;22.90;;;-3.80;99.90;;;;;;4956801;29;20206;-80
2023/11/30 04:27:21;;;;;;;59.13;23.07;;;-3.80;99.90;;;;;;4939022;29;20226;-81
2023/11/30 04:29:48;;;;;;;64.27;23.47;;;-3.80;99.90;;;;;;4939477;29;20195;-80
2023/11/30 04:32:15;;;;;;;59.37;23.03;;;-3.80;99.90;;;;;;4939441;29;20199;-80
2023/11/30 04:34:42;;;;;;;57.90;23.20;;;-3.70;99.90;;;;;;4939565;29;20195;-81
2023/11/30 04:37:10;;;;;;;61.43;23.07;;;-3.70;99.90;;;;;;4956464;29;20226;-80
2023/11/30 04:39:37;;;;;;;60.30;23.20;;;-3.60;99.90;;;;;;4956593;29;20281;-80
2023/11/30 04:42:05;;;;;;;59.60;23.23;;;-3.50;99.90;;;;;;4955175;29;20277;-81
2023/11/30 04:44:32;;;;;;;61.57;23.47;;;-3.50;99.90;;;;;;4956440;29;20213;-80
2023/11/30 04:46:59;;;;;;;60.33;22.60;;;-3.40;99.90;;;;;;4939489;29;20249;-81
2023/11/30 04:49:26;;;;;;;52.97;21.80;;;-3.40;99.90;;;;;;4923233;29;20295;-80
2023/11/30 04:51:54;;;;;;;60.80;23.27;;;-3.40;99.90;;;;;;4939398;29;20371;-80
2023/11/30 04:54:21;;;;;;;58.73;22.47;;;-3.40;99.90;;;;;;4956017;29;20191;-80
2023/11/30 04:56:48;;;;;;;55.90;22.23;;;-3.40;99.90;;;;;;4954886;29;20394;-80
2023/11/30 04:59:16;;;;;;;53.17;22.73;;;-3.30;99.90;;;;;;4939131;29;20202;-81
2023/11/30 05:01:43;;;;;;;58.13;23.00;;;-3.20;99.90;;;;;;4938929;29;20265;-80
2023/11/30 05:04:10;;;;;;;58.33;22.90;;;-3.30;99.90;;;;;;4939238;29;20210;-80
2023/11/30 05:06:38;;;;;;;56.97;21.67;;;-3.20;99.90;;;;;;4938845;29;20578;-80
2023/11/30 05:09:05;;;;;;;53.17;22.13;;;-3.20;99.90;;;;;;4939101;29;20198;-81
2023/11/30 05:11:33;;;;;;;53.93;21.67;;;-3.20;99.90;;;;;;4954644;28;20317;-80
2023/11/30 05:14:00;;;;;;;57.50;22.23;;;-3.20;99.90;;;;;;4955862;29;20254;-81
2023/11/30 05:16:27;;;;;;;54.77;22.10;;;-3.10;99.90;;;;;;4955901;29;20205;-81
2023/11/30 05:18:54;;;;;;;55.83;22.73;;;-3.10;99.90;;;;;;4955950;29;20206;-81
2023/11/30 05:21:21;;;;;;;54.33;22.30;;;-3.10;99.90;;;;;;4955949;29;20639;-80
2023/11/30 05:23:51;;;;;;;59.50;23.20;;;-3.10;99.90;;;;;;4938786;29;20195;-80
2023/11/30 05:26:18;;;;;;;56.80;22.40;;;-3.10;99.90;;;;;;4938528;29;20234;-81
2023/11/30 05:28:45;;;;;;;55.60;21.43;;;-3.20;99.90;;;;;;4955683;29;20195;-81
2023/11/30 05:31:12;;;;;;;52.63;21.90;;;-3.20;99.90;;;;;;4922672;29;20205;-81
2023/11/30 05:33:39;;;;;;;52.77;21.73;;;-3.20;99.90;;;;;;4954197;29;20553;-81
2023/11/30 05:36:07;;;;;;;57.80;22.37;;;-3.10;99.90;;;;;;4955781;29;20196;-81
2023/11/30 05:38:35;;;;;;;52.63;20.83;;;-3.10;99.90;;;;;;4954344;28;20240;-81
2023/11/30 05:41:02;;;;;;;57.47;21.73;;;-3.10;99.90;;;;;;4954099;29;20221;-81
2023/11/30 05:43:31;;;;;;;52.60;21.40;;;-3.10;99.90;;;;;;4922462;29;20198;-80
2023/11/30 05:46:00;;;;;;;52.97;22.87;;;-3.00;99.90;;;;;;4938828;29;20447;-80
2023/11/30 05:48:28;;;;;;;53.97;21.70;;;-3.00;99.90;;;;;;4955349;28;20202;-81
2023/11/30 05:50:55;;;;;;;59.37;22.23;;;-2.90;99.90;;;;;;4956616;29;20255;-80
2023/11/30 05:53:23;;;;;;;54.17;21.93;;;-2.80;99.90;;;;;;4938483;29;20202;-81
2023/11/30 05:55:50;;;;;;;55.07;22.20;;;-2.80;99.90;;;;;;4955856;29;20259;-80
2023/11/30 05:58:17;;;;;;;51.43;21.37;;;-3.00;99.90;;;;;;4937740;29;20224;-81
2023/11/30 06:00:45;;;;;;;52.60;21.97;;;-3.00;99.90;;;;;;4938945;29;21334;-81
2023/11/30 06:03:12;;;;;;;54.83;21.10;;;-3.00;99.90;;;;;;4937846;29;20827;-81
2023/11/30 06:05:39;;;;;;;54.37;21.37;;;-3.00;99.90;;;;;;4954903;29;20200;-80
2023/11/30 06:08:06;;;;;;;54.63;22.63;;;-3.00;99.90;;;;;;4955056;29;20262;-81
2023/11/30 06:10:33;;;;;;;47.60;20.80;;;-2.90;99.90;;;;;;4937757;29;20218;-80
2023/11/30 06:13:01;;;;;;;56.00;22.00;;;-2.90;99.90;;;;;;4953598;29;20270;-80
2023/11/30 06:15:28;;;;;;;50.40;20.73;;;-2.90;99.90;;;;;;4937925;29;20202;-81
2023/11/30 06:17:56;;;;;;;51.63;21.80;;;-2.90;99.90;;;;;;4954843;29;20311;-80
2023/11/30 06:20:23;;;;;;;56.07;20.70;;;-2.90;99.90;;;;;;4954641;29;20645;-81
2023/11/30 06:22:51;;;;;;;51.53;21.30;;;-2.90;99.90;;;;;;4954540;29;20221;-81
2023/11/30 06:25:19;;;;;;;55.07;21.63;;;-2.90;99.90;;;;;;4937261;29;20199;-81
2023/11/30 06:27:46;;;;;;;50.70;22.23;;;-3.00;99.90;;;;;;4954444;29;20197;-81
2023/11/30 06:30:14;;;;;;;56.87;21.47;;;-3.00;99.90;;;;;;4954512;29;20198;-80
2023/11/30 06:32:41;;;;;;;59.37;22.70;;;-3.00;99.90;;;;;;4937394;29;20203;-81
2023/11/30 06:35:08;;;;;;;57.47;22.70;;;-3.00;99.90;;;;;;4937392;29;20204;-81
2023/11/30 06:37:36;;;;;;;58.47;23.03;;;-3.00;99.90;;;;;;4920993;29;20218;-81
2023/11/30 06:40:04;;;;;;;55.40;22.67;;;-3.10;99.90;;;;;;4954364;29;20194;-81
2023/11/30 06:42:31;;;;;;;61.30;23.03;;;-3.10;99.90;;;;;;4937587;29;20281;-82
2023/11/30 06:44:59;;;;;;;55.20;23.00;;;-3.10;99.90;;;;;;4954286;29;20241;-82
2023/11/30 06:47:26;;;;;;;56.70;22.90;;;-3.20;99.90;;;;;;4936863;29;20198;-80
2023/11/30 06:49:53;;;;;;;58.80;22.77;;;-3.10;99.90;;;;;;4954022;28;20194;-80
2023/11/30 06:52:21;;;;;;;53.03;21.87;;;-3.20;99.90;;;;;;4954218;29;20198;-81
2023/11/30 06:54:48;;;;;;;60.50;22.53;;;-3.20;99.90;;;;;;4954045;29;20230;-80
2023/11/30 06:57:15;;;;;;;54.67;22.90;;;-3.20;99.90;;;;;;4952866;29;20214;-81
2023/11/30 06:59:43;;;;;;;55.27;23.30;;;-3.10;99.90;;;;;;4937005;29;20532;-81
2023/11/30 07:02:10;;;;;;;57.10;23.30;;;-3.10;99.90;;;;;;4953985;29;20604;-82
2023/11/30 07:04:38;;;;;;;57.67;23.40;;;-3.10;99.90;;;;;;4954055;29;20647;-81
2023/11/30 07:07:05;;;;;;;58.17;22.73;;;-3.10;99.90;;;;;;4937234;29;20224;-81
2023/11/30 07:09:33;;;;;;;58.87;24.00;;;-2.90;99.90;;;;;;4954239;29;20226;-81
2023/11/30 07:12:00;;;;;;;53.47;23.17;;;-2.90;99.90;;;;;;4955285;29;20215;-80
2023/11/30 07:14:28;;;;;;;54.50;21.93;;;-2.80;99.90;;;;;;4937218;29;20198;-81
2023/11/30 07:17:15;;;;;;;54.87;22.70;;;-2.70;99.90;;;;;;4952918;29;20194;-80
2023/11/30 07:19:43;;;;;;;58.07;22.60;;;-2.70;99.90;;;;;;4937137;29;20195;-80
2023/11/30 07:22:11;;;;;;;55.17;22.33;;;-2.60;99.90;;;;;;4937028;29;20190;-81
2023/11/30 07:24:39;;;;;;;55.13;22.77;;;-2.50;99.90;;;;;;4953979;29;20400;-82
2023/11/30 07:27:08;;;;;;;55.47;23.03;;;-2.60;99.90;;;;;;4952600;29;20293;-80
2023/11/30 07:29:36;;;;;;;54.13;21.77;;;-2.70;99.90;;;;;;4954121;29;20202;-80
2023/11/30 07:32:04;;;;;;;51.73;22.80;;;-2.60;99.90;;;;;;4954161;29;20194;-81
2023/11/30 07:34:32;;;;;;;55.73;23.03;;;-2.50;99.90;;;;;;4937139;29;20206;-81
2023/11/30 07:37:01;;;;;;;54.70;23.27;;;-2.50;99.90;;;;;;4954083;29;20271;-81
2023/11/30 07:39:28;;;;;;;54.93;21.83;;;-2.50;99.90;;;;;;4954052;29;20270;-81
2023/11/30 07:41:56;;;;;;;53.00;21.80;;;-2.50;99.90;;;;;;4936418;29;20247;-81
2023/11/30 07:44:25;;;;;;;51.57;22.17;;;-2.40;99.90;;;;;;4953852;29;20190;-80
2023/11/30 07:46:52;;;;;;;50.37;21.77;;;-2.30;99.90;;;;;;4936908;29;20209;-81
2023/11/30 07:49:19;;;;;;;51.47;22.43;;;-2.20;99.90;;;;;;4936558;29;20214;-81
2023/11/30 07:51:47;;;;;;;51.80;22.63;;;-2.20;99.90;;;;;;4953667;29;20670;-81
2023/11/30 07:54:14;;;;;;;51.57;22.23;;;-2.10;99.90;;;;;;4953895;29;20207;-81
2023/11/30 07:56:41;;;;;;;49.70;21.43;;;-2.00;99.90;;;;;;4936136;29;20231;-81
2023/11/30 07:59:12;;;;;;;55.43;22.17;;;-2.00;99.90;;;;;;4936758;29;20238;-81
2023/11/30 08:01:40;;;;;;;50.00;21.73;;;-2.00;99.90;;;;;;4921924;29;20302;-81
2023/11/30 08:04:07;;;;;;;52.77;21.43;;;-1.90;99.90;;;;;;4957150;29;20199;-81
2023/11/30 08:06:34;;;;;;;53.73;21.83;;;-1.80;99.90;;;;;;4957156;29;20210;-81
2023/11/30 08:09:03;;;;;;;54.03;22.10;;;-1.90;99.90;;;;;;4940026;29;20228;-81
2023/11/30 08:11:30;;;;;;;48.27;21.90;;;-1.70;99.90;;;;;;4939501;29;20219;-80
2023/11/30 08:13:57;;;;;;;51.23;21.73;;;-1.70;99.90;;;;;;4956963;29;20202;-81
2023/11/30 08:16:24;;;;;;;52.17;21.30;;;-1.70;99.90;;;;;;4940156;29;20286;-80
2023/11/30 08:18:52;;;;;;;49.33;21.83;;;-1.70;99.90;;;;;;4940018;29;20527;-81
2023/11/30 08:21:21;;;;;;;49.87;21.07;;;-1.60;99.90;;;;;;4956779;29;20194;-80
2023/11/30 08:23:49;;;;;;;52.80;21.47;;;-1.50;99.90;;;;;;4939487;29;20238;-81
2023/11/30 08:26:16;;;;;;;54.30;21.73;;;-1.40;99.90;;;;;;4940203;29;20261;-81
2023/11/30 08:28:44;;;;;;;46.63;21.27;;;-1.30;99.90;;;;;;4956898;29;20203;-81
2023/11/30 08:31:12;;;;;;;50.70;22.47;;;-1.30;99.90;;;;;;4939516;29;20657;-80
2023/11/30 08:33:39;;;;;;;50.57;21.83;;;-1.20;99.90;;;;;;4955380;29;20202;-81
2023/11/30 08:36:07;;;;;;;46.10;21.50;;;-1.20;99.90;;;;;;4956756;29;20200;-80
2023/11/30 08:38:37;;;;;;;51.63;22.77;;;-1.20;99.90;;;;;;4956275;29;20219;-80
2023/11/30 08:41:04;;;;;;;51.20;22.73;;;-1.20;99.90;;;;;;4955336;29;20669;-80
2023/11/30 08:43:32;;;;;;;52.17;21.90;;;-1.20;99.90;;;;;;4939222;29;20657;-80
2023/11/30 08:45:59;;;;;;;49.73;22.10;;;-1.20;99.90;;;;;;4939217;29;20233;-81
2023/11/30 08:48:27;;;;;;;48.53;21.40;;;-1.00;99.90;;;;;;4956245;29;20742;-80
2023/11/30 08:50:54;;;;;;;53.73;22.10;;;-1.10;99.90;;;;;;4939231;29;20667;-80
2023/11/30 08:53:22;;;;;;;44.17;20.80;;;-1.00;99.90;;;;;;4956234;29;20192;-80
2023/11/30 08:55:49;;;;;;;45.57;20.93;;;-0.90;99.90;;;;;;4938994;29;20252;-80
2023/11/30 08:58:16;;;;;;;48.73;21.43;;;-0.90;99.90;;;;;;4939079;29;20683;-80
2023/11/30 09:00:43;;;;;;;46.00;21.20;;;-0.90;99.90;;;;;;4955285;29;20193;-79
2023/11/30 09:03:11;;;;;;;51.47;21.93;;;-0.80;99.90;;;;;;4956439;29;20200;-79
2023/11/30 09:05:40;;;;;;;48.50;21.50;;;-0.70;99.90;;;;;;4939470;29;20606;-80
2023/11/30 09:08:07;;;;;;;44.17;20.13;;;-0.60;99.90;;;;;;4956236;29;20226;-80
2023/11/30 09:10:35;;;;;;;47.10;21.27;;;-0.60;99.90;;;;;;4956140;29;20223;-79
2023/11/30 09:13:03;;;;;;;45.57;20.97;;;-0.60;99.90;;;;;;4938717;29;20205;-80
2023/11/30 09:15:31;;;;;;;46.73;21.50;;;-0.60;99.90;;;;;;4938904;29;20262;-80
2023/11/30 09:18:00;;;;;;;48.03;21.87;;;-0.60;99.90;;;;;;4922859;29;20240;-80
2023/11/30 09:20:29;;;;;;;42.67;20.83;;;-0.50;99.90;;;;;;4939273;29;20594;-80
2023/11/30 09:22:56;;;;;;;49.37;22.03;;;-0.30;99.90;;;;;;4938989;29;20208;-80
2023/11/30 09:25:24;;;;;;;44.93;21.40;;;-0.20;99.90;;;;;;4956017;29;20244;-80
2023/11/30 09:27:51;;;;;;;42.67;20.83;;;-0.10;99.90;;;;;;4955587;29;20190;-80
2023/11/30 09:30:18;;;;;;;43.50;20.53;;;-0.10;99.90;;;;;;4956032;29;20225;-79
2023/11/30 09:32:45;;;;;;;44.70;22.30;;;0.00;99.90;;;;;;4954599;29;20299;-80
2023/11/30 09:35:13;;;;;;;44.13;21.40;;;0.20;99.90;;;;;;4955526;29;20201;-80
2023/11/30 09:37:40;;;;;;;43.07;21.53;;;0.30;99.90;;;;;;4955595;29;20607;-80
2023/11/30 09:40:09;;;;;;;43.20;21.27;;;0.50;99.90;;;;;;4938170;29;20302;-81
2023/11/30 09:42:37;;;;;;;42.23;20.80;;;0.70;99.90;;;;;;4938265;29;20290;-81
2023/11/30 09:45:07;;;;;;;42.77;20.53;;;0.60;99.90;;;;;;4937945;29;20208;-81
2023/11/30 09:47:34;;;;;;;42.50;20.70;;;0.80;99.90;;;;;;4955133;29;20254;-80
2023/11/30 09:50:03;;;;;;;41.40;20.97;;;0.90;99.90;;;;;;4938400;29;20198;-81
2023/11/30 09:52:31;;;;;;;43.00;20.40;;;1.00;99.90;;;;;;4938466;29;20189;-80
2023/11/30 09:54:59;;;;;;;43.90;20.90;;;1.00;99.90;;;;;;4955131;29;20234;-81
2023/11/30 09:57:26;;;;;;;40.73;20.23;;;1.40;99.90;;;;;;4954967;29;20662;-81
2023/11/30 09:59:55;;;;;;;43.33;19.73;;;1.20;99.90;;;;;;4937752;29;20239;-80
2023/11/30 10:02:24;;;;;;;36.50;18.80;;;1.40;99.90;;;;;;4955484;29;20285;-80
2023/11/30 10:04:51;;;;;;;37.83;18.50;;;1.40;99.90;;;;;;4955055;29;20196;-80
2023/11/30 10:07:18;;;;;;;37.27;19.27;;;1.40;99.90;;;;;;4937915;29;20556;-80
2023/11/30 10:09:46;;;;;;;39.17;18.93;;;1.30;99.90;;;;;;4954897;29;20288;-80
2023/11/30 10:12:14;;;;;;;36.53;18.77;;;1.30;99.90;;;;;;4955039;29;20225;-81
2023/11/30 10:14:41;;;;;;;38.20;18.40;;;1.20;99.90;;;;;;4954800;29;20189;-81
2023/11/30 10:17:08;;;;;;;33.93;17.50;;;1.30;99.90;;;;;;4955034;29;20226;-80
2023/11/30 10:19:37;;;;;;;34.53;17.50;;;1.10;99.90;;;;;;4937402;29;20749;-80
2023/11/30 10:22:04;;;;;;;31.73;16.70;;;1.00;99.90;;;;;;4937547;29;20269;-81
2023/11/30 10:24:31;;;;;;;32.00;17.37;;;1.10;99.90;;;;;;4954150;28;20192;-81
2023/11/30 10:27:04;;;;;;;34.33;17.60;;;1.20;99.90;;;;;;4954517;29;20274;-81
2023/11/30 10:29:36;;;;;;;31.60;16.63;;;1.30;99.90;;;;;;4954687;29;20178;-81
2023/11/30 10:32:07;;;;;;;30.67;15.67;;;1.40;99.90;;;;;;4954870;29;20196;-80
2023/11/30 10:34:43;;;;;;;29.57;14.70;;;1.20;99.90;;;;;;4937206;29;20208;-80
2023/11/30 10:37:16;;;;;;;25.43;13.20;;;1.10;99.90;;;;;;4921653;29;20253;-80
2023/11/30 10:39:59;;;;;;;29.17;14.63;;;1.10;99.90;;;;;;4957011;29;20278;-80
2023/11/30 10:42:29;;;;;;;27.87;14.17;;;1.10;99.90;;;;;;4956078;29;20216;-81
2023/11/30 10:45:00;;;;;;;24.63;13.53;;;1.10;99.90;;;;;;4957499;29;20227;-80
2023/11/30 10:47:29;;;;;;;24.60;13.50;;;1.10;99.90;;;;;;4922449;29;20654;-80
2023/11/30 10:50:05;;;;;;;28.07;14.60;;;1.20;99.90;;;;;;4937476;29;20217;-80
2023/11/30 10:52:35;;;;;;;25.50;13.53;;;1.30;99.90;;;;;;4954184;29;20200;-79
2023/11/30 10:55:07;;;;;;;23.27;12.47;;;1.40;99.90;;;;;;4954183;29;20244;-80
2023/11/30 10:57:34;;;;;;;26.13;13.80;;;1.30;99.90;;;;;;4952814;29;20652;-80
2023/11/30 11:00:02;;;;;;;24.83;13.60;;;1.40;99.90;;;;;;4937006;29;20319;-80
2023/11/30 11:02:41;;;;;;;23.20;12.30;;;1.40;99.90;;;;;;4955777;29;20203;-80
2023/11/30 11:05:14;;;;;;;22.40;12.37;;;1.60;99.90;;;;;;4957045;29;20233;-79
2023/11/30 11:07:47;;;;;;;21.37;11.67;;;1.50;99.90;;;;;;4954928;29;20186;-80
2023/11/30 11:10:38;;;;;;;21.83;12.00;;;1.30;99.90;;;;;;4956043;29;20197;-79
2023/11/30 11:13:06;;;;;;;23.07;12.63;;;1.20;99.90;;;;;;4937488;29;20291;-80
2023/11/30 11:15:34;;;;;;;24.57;12.67;;;1.20;99.90;;;;;;4954436;29;20208;-83
2023/11/30 11:18:05;;;;;;;26.63;13.37;;;1.10;99.90;;;;;;4937105;29;20562;-80
2023/11/30 11:20:35;;;;;;;24.20;12.87;;;1.30;99.90;;;;;;4953973;29;20220;-81
2023/11/30 11:23:03;;;;;;;26.37;12.77;;;1.40;99.90;;;;;;4952756;29;20275;-80
2023/11/30 11:25:43;;;;;;;23.57;13.60;;;1.60;99.90;;;;;;4921186;29;20310;-80
2023/11/30 11:28:11;;;;;;;26.67;13.97;;;1.80;99.90;;;;;;4953948;29;20194;-81
2023/11/30 11:30:43;;;;;;;26.17;14.07;;;1.90;99.90;;;;;;4937042;29;20190;-80
2023/11/30 11:33:13;;;;;;;27.57;14.20;;;1.80;99.90;;;;;;4953828;29;20198;-80
2023/11/30 11:35:40;;;;;;;27.03;14.70;;;1.80;99.90;;;;;;4936885;29;20213;-80
2023/11/30 11:38:08;;;;;;;27.70;14.67;;;1.70;99.90;;;;;;4957337;29;20202;-81
2023/11/30 11:40:39;;;;;;;25.60;14.03;;;1.80;99.90;;;;;;4957539;29;20232;-80
2023/11/30 11:43:06;;;;;;;27.30;14.77;;;1.60;99.90;;;;;;4957832;29;20290;-80
2023/11/30 11:45:35;;;;;;;30.37;14.83;;;1.50;99.90;;;;;;4957856;29;20209;-81
2023/11/30 11:48:03;;;;;;;28.93;14.87;;;1.50;99.90;;;;;;4940457;29;20293;-80
2023/11/30 11:50:30;;;;;;;28.43;15.03;;;1.60;99.90;;;;;;4957266;29;20658;-80
2023/11/30 11:53:03;;;;;;;28.23;14.97;;;1.50;99.90;;;;;;4940142;29;20209;-80
2023/11/30 11:55:31;;;;;;;26.33;14.40;;;1.30;99.90;;;;;;4957776;29;20249;-80
2023/11/30 11:57:58;;;;;;;29.20;14.87;;;1.30;99.90;;;;;;4960134;29;20210;-81
2023/11/30 12:00:25;;;;;;;28.67;14.43;;;1.20;99.90;;;;;;4940342;29;20231;-81
2023/11/30 12:03:05;;;;;;;29.50;14.87;;;1.20;99.90;;;;;;4957552;29;20199;-80
2023/11/30 12:05:33;;;;;;;31.00;15.37;;;1.20;99.90;;;;;;4940651;29;20201;-81
2023/11/30 12:08:02;;;;;;;30.00;16.33;;;1.30;99.90;;;;;;4940224;29;20208;-80
2023/11/30 12:10:40;;;;;;;30.60;15.37;;;1.30;99.90;;;;;;4939628;29;20683;-81
2023/11/30 12:13:12;;;;;;;27.13;15.17;;;1.40;99.90;;;;;;4940537;29;20206;-81
2023/11/30 12:15:40;;;;;;;27.40;14.83;;;1.40;99.90;;;;;;4958002;29;20227;-81
2023/11/30 12:18:07;;;;;;;29.60;14.30;;;1.30;99.90;;;;;;4956433;29;20287;-81
2023/11/30 12:20:35;;;;;;;28.30;15.17;;;1.30;99.90;;;;;;4940752;29;20218;-81
2023/11/30 12:23:02;;;;;;;27.67;14.67;;;1.40;99.90;;;;;;4940729;29;20296;-81
2023/11/30 12:25:29;;;;;;;28.90;14.60;;;1.40;99.90;;;;;;4957702;29;20238;-80
2023/11/30 12:27:57;;;;;;;28.37;14.67;;;1.40;99.90;;;;;;4957438;29;20202;-81
2023/11/30 12:30:24;;;;;;;26.47;14.27;;;1.50;99.90;;;;;;4923782;29;20215;-81
2023/11/30 12:32:52;;;;;;;28.07;15.27;;;1.60;99.90;;;;;;4955415;29;20207;-80